METAR : OOSA 261650Z VRB01KT CAVOK 26/20 Q1016 NOSIG